sensor_id;sensor_type;location;lat;lon;timestamp;pressure;altitude;pressure_sealevel;temperature;humidity
63097;BME280;49185;42.320;23.198;2023-12-20T00:01:18;95341.16;;;-4.16;100.00
63097;BME280;49185;42.320;23.198;2023-12-20T00:03:43;95346.09;;;-4.32;100.00
63097;BME280;49185;42.320;23.198;2023-12-20T00:06:09;95336.16;;;-4.37;100.00
63097;BME280;49185;42.320;23.198;2023-12-20T00:08:35;95339.09;;;-4.22;100.00
63097;BME280;49185;42.320;23.198;2023-12-20T00:11:01;95335.44;;;-4.29;100.00
63097;BME280;49185;42.320;23.198;2023-12-20T00:13:27;95333.50;;;-4.27;100.00
63097;BME280;49185;42.320;23.198;2023-12-20T00:15:53;95333.03;;;-4.50;100.00
63097;BME280;49185;42.320;23.198;2023-12-20T00:18:18;95330.69;;;-4.44;100.00
63097;BME280;49185;42.320;23.198;2023-12-20T00:20:44;95333.47;;;-4.55;100.00
63097;BME280;49185;42.320;23.198;2023-12-20T00:23:09;95337.41;;;-4.51;100.00
63097;BME280;49185;42.320;23.198;2023-12-20T00:25:35;95329.72;;;-4.43;100.00
63097;BME280;49185;42.320;23.198;2023-12-20T00:28:01;95328.38;;;-4.47;100.00
63097;BME280;49185;42.320;23.198;2023-12-20T00:30:27;95329.63;;;-4.51;100.00
63097;BME280;49185;42.320;23.198;2023-12-20T00:32:52;95326.63;;;-4.56;100.00
63097;BME280;49185;42.320;23.198;2023-12-20T00:35:18;95327.56;;;-4.47;100.00
63097;BME280;49185;42.320;23.198;2023-12-20T00:37:44;95333.22;;;-4.62;100.00
63097;BME280;49185;42.320;23.198;2023-12-20T00:40:10;95325.28;;;-4.60;100.00
63097;BME280;49185;42.320;23.198;2023-12-20T00:42:35;95323.50;;;-4.60;100.00
63097;BME280;49185;42.320;23.198;2023-12-20T00:45:01;95327.44;;;-4.55;100.00
63097;BME280;49185;42.320;23.198;2023-12-20T00:47:27;95321.03;;;-4.61;100.00
63097;BME280;49185;42.320;23.198;2023-12-20T00:49:53;95322.09;;;-4.44;100.00
63097;BME280;49185;42.320;23.198;2023-12-20T00:52:18;95314.06;;;-4.61;100.00
63097;BME280;49185;42.320;23.198;2023-12-20T00:54:44;95312.00;;;-4.57;100.00
63097;BME280;49185;42.320;23.198;2023-12-20T00:57:09;95303.28;;;-4.66;100.00
63097;BME280;49185;42.320;23.198;2023-12-20T00:59:35;95300.59;;;-4.74;100.00
63097;BME280;49185;42.320;23.198;2023-12-20T01:02:00;95303.19;;;-4.74;100.00
63097;BME280;49185;42.320;23.198;2023-12-20T01:04:26;95297.31;;;-4.76;100.00
63097;BME280;49185;42.320;23.198;2023-12-20T01:06:52;95295.25;;;-4.82;100.00
63097;BME280;49185;42.320;23.198;2023-12-20T01:09:17;95299.78;;;-4.74;100.00
63097;BME280;49185;42.320;23.198;2023-12-20T01:11:43;95292.94;;;-4.75;100.00
63097;BME280;49185;42.320;23.198;2023-12-20T01:14:10;95291.59;;;-4.80;100.00
63097;BME280;49185;42.320;23.198;2023-12-20T01:16:35;95288.44;;;-4.83;100.00
63097;BME280;49185;42.320;23.198;2023-12-20T01:19:01;95293.91;;;-4.86;100.00
63097;BME280;49185;42.320;23.198;2023-12-20T01:21:26;95284.34;;;-4.86;100.00
63097;BME280;49185;42.320;23.198;2023-12-20T01:23:52;95286.97;;;-4.96;100.00
63097;BME280;49185;42.320;23.198;2023-12-20T01:26:17;95279.28;;;-4.87;100.00
63097;BME280;49185;42.320;23.198;2023-12-20T01:28:42;95267.69;;;-4.93;100.00
63097;BME280;49185;42.320;23.198;2023-12-20T01:31:08;95264.97;;;-5.01;100.00
63097;BME280;49185;42.320;23.198;2023-12-20T01:33:34;95257.03;;;-5.00;100.00
63097;BME280;49185;42.320;23.198;2023-12-20T01:35:59;95249.69;;;-5.04;100.00
63097;BME280;49185;42.320;23.198;2023-12-20T01:38:25;95255.28;;;-5.09;100.00
63097;BME280;49185;42.320;23.198;2023-12-20T01:40:50;95247.78;;;-5.02;100.00
63097;BME280;49185;42.320;23.198;2023-12-20T01:43:16;95240.13;;;-5.04;100.00
63097;BME280;49185;42.320;23.198;2023-12-20T01:45:41;95236.97;;;-4.98;100.00
63097;BME280;49185;42.320;23.198;2023-12-20T01:48:08;95237.69;;;-5.05;100.00
63097;BME280;49185;42.320;23.198;2023-12-20T01:50:36;95224.97;;;-5.08;100.00
63097;BME280;49185;42.320;23.198;2023-12-20T01:53:02;95226.09;;;-5.11;100.00
63097;BME280;49185;42.320;23.198;2023-12-20T01:55:31;95223.75;;;-5.14;100.00
63097;BME280;49185;42.320;23.198;2023-12-20T01:57:58;95210.53;;;-5.11;100.00
63097;BME280;49185;42.320;23.198;2023-12-20T02:00:25;95208.34;;;-5.16;100.00
63097;BME280;49185;42.320;23.198;2023-12-20T02:02:53;95216.25;;;-5.07;100.00
63097;BME280;49185;42.320;23.198;2023-12-20T02:05:19;95208.34;;;-5.06;100.00
63097;BME280;49185;42.320;23.198;2023-12-20T02:07:45;95215.97;;;-5.04;100.00
63097;BME280;49185;42.320;23.198;2023-12-20T02:10:11;95200.69;;;-5.17;100.00
63097;BME280;49185;42.320;23.198;2023-12-20T02:12:36;95197.28;;;-5.18;100.00
63097;BME280;49185;42.320;23.198;2023-12-20T02:15:02;95201.66;;;-5.18;100.00
63097;BME280;49185;42.320;23.198;2023-12-20T02:17:29;95199.19;;;-5.10;100.00
63097;BME280;49185;42.320;23.198;2023-12-20T02:19:55;95197.28;;;-5.08;100.00
63097;BME280;49185;42.320;23.198;2023-12-20T02:22:20;95194.00;;;-5.10;100.00
63097;BME280;49185;42.320;23.198;2023-12-20T02:24:45;95193.84;;;-4.99;100.00
63097;BME280;49185;42.320;23.198;2023-12-20T02:27:11;95186.88;;;-4.98;100.00
63097;BME280;49185;42.320;23.198;2023-12-20T02:29:37;95187.25;;;-4.83;100.00
63097;BME280;49185;42.320;23.198;2023-12-20T02:32:03;95181.81;;;-5.00;100.00
63097;BME280;49185;42.320;23.198;2023-12-20T02:34:28;95179.94;;;-5.07;100.00
63097;BME280;49185;42.320;23.198;2023-12-20T02:36:54;95183.31;;;-4.97;100.00
63097;BME280;49185;42.320;23.198;2023-12-20T02:39:20;95175.81;;;-5.00;100.00
63097;BME280;49185;42.320;23.198;2023-12-20T02:41:46;95175.81;;;-4.90;100.00
63097;BME280;49185;42.320;23.198;2023-12-20T02:44:12;95182.47;;;-4.88;100.00
63097;BME280;49185;42.320;23.198;2023-12-20T02:46:37;95166.19;;;-4.80;100.00
63097;BME280;49185;42.320;23.198;2023-12-20T02:49:02;95170.97;;;-4.85;100.00
63097;BME280;49185;42.320;23.198;2023-12-20T02:51:28;95165.22;;;-4.79;100.00
63097;BME280;49185;42.320;23.198;2023-12-20T02:53:53;95152.13;;;-4.78;100.00
63097;BME280;49185;42.320;23.198;2023-12-20T02:56:18;95159.97;;;-4.97;100.00
63097;BME280;49185;42.320;23.198;2023-12-20T02:58:44;95157.53;;;-4.99;100.00
63097;BME280;49185;42.320;23.198;2023-12-20T03:01:09;95146.69;;;-4.94;100.00
63097;BME280;49185;42.320;23.198;2023-12-20T03:03:35;95152.59;;;-4.92;100.00
63097;BME280;49185;42.320;23.198;2023-12-20T03:06:00;95157.38;;;-4.97;100.00
63097;BME280;49185;42.320;23.198;2023-12-20T03:08:25;95154.41;;;-5.12;100.00
63097;BME280;49185;42.320;23.198;2023-12-20T03:10:51;95152.88;;;-5.05;100.00
63097;BME280;49185;42.320;23.198;2023-12-20T03:13:16;95151.94;;;-5.04;100.00
63097;BME280;49185;42.320;23.198;2023-12-20T03:15:42;95149.72;;;-4.99;100.00
63097;BME280;49185;42.320;23.198;2023-12-20T03:18:07;95158.84;;;-4.94;100.00
63097;BME280;49185;42.320;23.198;2023-12-20T03:20:33;95157.25;;;-4.96;100.00
63097;BME280;49185;42.320;23.198;2023-12-20T03:22:58;95149.84;;;-4.90;100.00
63097;BME280;49185;42.320;23.198;2023-12-20T03:25:23;95151.66;;;-5.01;100.00
63097;BME280;49185;42.320;23.198;2023-12-20T03:27:49;95148.94;;;-4.99;100.00
63097;BME280;49185;42.320;23.198;2023-12-20T03:30:14;95145.22;;;-4.97;100.00
63097;BME280;49185;42.320;23.198;2023-12-20T03:32:40;95141.50;;;-4.94;100.00
63097;BME280;49185;42.320;23.198;2023-12-20T03:35:05;95133.72;;;-4.94;100.00
63097;BME280;49185;42.320;23.198;2023-12-20T03:37:31;95132.91;;;-4.94;100.00
63097;BME280;49185;42.320;23.198;2023-12-20T03:39:56;95132.72;;;-5.11;100.00
63097;BME280;49185;42.320;23.198;2023-12-20T03:42:22;95137.56;;;-4.98;100.00
63097;BME280;49185;42.320;23.198;2023-12-20T03:44:48;95138.19;;;-5.14;100.00
63097;BME280;49185;42.320;23.198;2023-12-20T03:47:13;95145.03;;;-5.23;100.00
63097;BME280;49185;42.320;23.198;2023-12-20T03:49:39;95137.63;;;-5.18;100.00
63097;BME280;49185;42.320;23.198;2023-12-20T03:52:05;95135.50;;;-5.22;100.00
63097;BME280;49185;42.320;23.198;2023-12-20T03:54:31;95135.84;;;-5.17;100.00
63097;BME280;49185;42.320;23.198;2023-12-20T03:56:57;95131.38;;;-5.15;100.00
63097;BME280;49185;42.320;23.198;2023-12-20T03:59:22;95135.38;;;-5.30;100.00
63097;BME280;49185;42.320;23.198;2023-12-20T04:01:48;95126.50;;;-5.38;100.00
63097;BME280;49185;42.320;23.198;2023-12-20T04:04:13;95134.84;;;-5.44;100.00
63097;BME280;49185;42.320;23.198;2023-12-20T04:06:40;95126.25;;;-5.44;100.00
63097;BME280;49185;42.320;23.198;2023-12-20T04:09:05;95120.81;;;-5.51;100.00
63097;BME280;49185;42.320;23.198;2023-12-20T04:11:31;95115.47;;;-5.49;100.00
63097;BME280;49185;42.320;23.198;2023-12-20T04:13:56;95121.47;;;-5.49;100.00
63097;BME280;49185;42.320;23.198;2023-12-20T04:16:22;95114.81;;;-5.51;100.00
63097;BME280;49185;42.320;23.198;2023-12-20T04:18:48;95114.41;;;-5.47;100.00
63097;BME280;49185;42.320;23.198;2023-12-20T04:21:13;95118.78;;;-5.57;100.00
63097;BME280;49185;42.320;23.198;2023-12-20T04:23:38;95117.72;;;-5.64;100.00
63097;BME280;49185;42.320;23.198;2023-12-20T04:26:04;95113.81;;;-5.41;100.00
63097;BME280;49185;42.320;23.198;2023-12-20T04:28:30;95108.16;;;-5.54;100.00
63097;BME280;49185;42.320;23.198;2023-12-20T04:30:56;95104.97;;;-5.48;100.00
63097;BME280;49185;42.320;23.198;2023-12-20T04:33:22;95110.44;;;-5.41;100.00
63097;BME280;49185;42.320;23.198;2023-12-20T04:35:47;95099.38;;;-5.43;100.00
63097;BME280;49185;42.320;23.198;2023-12-20T04:38:13;95105.78;;;-5.38;100.00
63097;BME280;49185;42.320;23.198;2023-12-20T04:40:39;95095.81;;;-5.42;100.00
63097;BME280;49185;42.320;23.198;2023-12-20T04:43:04;95089.28;;;-5.46;100.00
63097;BME280;49185;42.320;23.198;2023-12-20T04:45:30;95086.03;;;-5.48;100.00
63097;BME280;49185;42.320;23.198;2023-12-20T04:47:55;95091.06;;;-5.47;100.00
63097;BME280;49185;42.320;23.198;2023-12-20T04:50:21;95089.16;;;-5.45;100.00
63097;BME280;49185;42.320;23.198;2023-12-20T04:52:46;95095.41;;;-5.38;100.00
63097;BME280;49185;42.320;23.198;2023-12-20T04:55:12;95086.72;;;-5.56;100.00
63097;BME280;49185;42.320;23.198;2023-12-20T04:57:38;95082.91;;;-5.52;100.00
63097;BME280;49185;42.320;23.198;2023-12-20T05:00:03;95083.56;;;-5.60;100.00
63097;BME280;49185;42.320;23.198;2023-12-20T05:02:29;95082.38;;;-5.56;100.00
63097;BME280;49185;42.320;23.198;2023-12-20T05:04:54;95077.97;;;-5.55;100.00
63097;BME280;49185;42.320;23.198;2023-12-20T05:07:20;95077.03;;;-5.54;100.00
63097;BME280;49185;42.320;23.198;2023-12-20T05:09:46;95074.94;;;-5.41;100.00
63097;BME280;49185;42.320;23.198;2023-12-20T05:12:11;95072.41;;;-5.50;100.00
63097;BME280;49185;42.320;23.198;2023-12-20T05:14:36;95075.25;;;-5.54;100.00
63097;BME280;49185;42.320;23.198;2023-12-20T05:17:02;95076.31;;;-5.46;100.00
63097;BME280;49185;42.320;23.198;2023-12-20T05:19:27;95067.75;;;-5.47;100.00
63097;BME280;49185;42.320;23.198;2023-12-20T05:21:53;95065.16;;;-5.47;100.00
63097;BME280;49185;42.320;23.198;2023-12-20T05:24:18;95071.41;;;-5.49;100.00
63097;BME280;49185;42.320;23.198;2023-12-20T05:26:43;95060.03;;;-5.66;100.00
63097;BME280;49185;42.320;23.198;2023-12-20T05:29:09;95062.44;;;-5.55;100.00
63097;BME280;49185;42.320;23.198;2023-12-20T05:31:34;95052.19;;;-5.47;100.00
63097;BME280;49185;42.320;23.198;2023-12-20T05:33:59;95041.81;;;-5.47;100.00
63097;BME280;49185;42.320;23.198;2023-12-20T05:36:25;95045.75;;;-5.43;100.00
63097;BME280;49185;42.320;23.198;2023-12-20T05:38:51;95047.34;;;-5.32;100.00
63097;BME280;49185;42.320;23.198;2023-12-20T05:41:16;95045.75;;;-5.43;100.00
63097;BME280;49185;42.320;23.198;2023-12-20T05:43:42;95037.91;;;-5.61;100.00
63097;BME280;49185;42.320;23.198;2023-12-20T05:46:10;95036.16;;;-5.70;100.00
63097;BME280;49185;42.320;23.198;2023-12-20T05:48:35;95041.03;;;-5.67;100.00
63097;BME280;49185;42.320;23.198;2023-12-20T05:51:01;95040.25;;;-5.67;100.00
63097;BME280;49185;42.320;23.198;2023-12-20T05:53:26;95041.19;;;-5.68;100.00
63097;BME280;49185;42.320;23.198;2023-12-20T05:55:52;95037.50;;;-5.66;100.00
63097;BME280;49185;42.320;23.198;2023-12-20T05:58:17;95040.25;;;-5.67;100.00
63097;BME280;49185;42.320;23.198;2023-12-20T06:00:43;95035.31;;;-5.61;100.00
63097;BME280;49185;42.320;23.198;2023-12-20T06:03:08;95034.91;;;-5.66;100.00
63097;BME280;49185;42.320;23.198;2023-12-20T06:05:34;95032.34;;;-5.76;100.00
63097;BME280;49185;42.320;23.198;2023-12-20T06:07:59;95030.00;;;-5.69;100.00
63097;BME280;49185;42.320;23.198;2023-12-20T06:10:24;95034.41;;;-5.79;100.00
63097;BME280;49185;42.320;23.198;2023-12-20T06:12:50;95038.22;;;-5.74;100.00
63097;BME280;49185;42.320;23.198;2023-12-20T06:15:15;95035.44;;;-5.62;100.00
63097;BME280;49185;42.320;23.198;2023-12-20T06:17:40;95034.41;;;-5.79;100.00
63097;BME280;49185;42.320;23.198;2023-12-20T06:20:07;95034.09;;;-5.66;100.00
63097;BME280;49185;42.320;23.198;2023-12-20T06:22:34;95029.47;;;-5.63;100.00
63097;BME280;49185;42.320;23.198;2023-12-20T06:24:59;95035.78;;;-5.75;100.00
63097;BME280;49185;42.320;23.198;2023-12-20T06:27:24;95040.13;;;-5.76;100.00
63097;BME280;49185;42.320;23.198;2023-12-20T06:29:50;95042.81;;;-5.67;100.00
63097;BME280;49185;42.320;23.198;2023-12-20T06:32:15;95041.75;;;-5.75;100.00
63097;BME280;49185;42.320;23.198;2023-12-20T06:34:40;95042.31;;;-5.81;100.00
63097;BME280;49185;42.320;23.198;2023-12-20T06:37:06;95049.75;;;-5.58;100.00
63097;BME280;49185;42.320;23.198;2023-12-20T06:39:31;95037.22;;;-5.63;100.00
63097;BME280;49185;42.320;23.198;2023-12-20T06:41:57;95041.13;;;-5.49;100.00
63097;BME280;49185;42.320;23.198;2023-12-20T06:44:22;95030.25;;;-5.62;100.00
63097;BME280;49185;42.320;23.198;2023-12-20T06:46:47;95032.28;;;-5.56;100.00
63097;BME280;49185;42.320;23.198;2023-12-20T06:49:13;95036.78;;;-5.48;100.00
63097;BME280;49185;42.320;23.198;2023-12-20T06:51:38;95038.69;;;-5.50;100.00
63097;BME280;49185;42.320;23.198;2023-12-20T06:54:04;95031.59;;;-5.48;100.00
63097;BME280;49185;42.320;23.198;2023-12-20T06:56:29;95032.72;;;-5.61;100.00
63097;BME280;49185;42.320;23.198;2023-12-20T06:58:55;95026.16;;;-5.55;100.00
63097;BME280;49185;42.320;23.198;2023-12-20T07:01:21;95015.91;;;-5.47;100.00
63097;BME280;49185;42.320;23.198;2023-12-20T07:03:46;95021.63;;;-5.53;100.00
63097;BME280;49185;42.320;23.198;2023-12-20T07:06:11;95017.44;;;-5.54;100.00
63097;BME280;49185;42.320;23.198;2023-12-20T07:08:37;95007.13;;;-5.36;100.00
63097;BME280;49185;42.320;23.198;2023-12-20T07:11:02;95009.50;;;-5.25;100.00
63097;BME280;49185;42.320;23.198;2023-12-20T07:13:28;94998.13;;;-5.14;100.00
63097;BME280;49185;42.320;23.198;2023-12-20T07:15:53;95000.72;;;-5.14;100.00
63097;BME280;49185;42.320;23.198;2023-12-20T07:18:18;95001.75;;;-5.07;100.00
63097;BME280;49185;42.320;23.198;2023-12-20T07:20:44;94990.25;;;-5.22;100.00
63097;BME280;49185;42.320;23.198;2023-12-20T07:23:09;94993.31;;;-5.09;100.00
63097;BME280;49185;42.320;23.198;2023-12-20T07:25:35;94981.69;;;-5.05;100.00
63097;BME280;49185;42.320;23.198;2023-12-20T07:28:00;94988.88;;;-5.17;100.00
63097;BME280;49185;42.320;23.198;2023-12-20T07:30:25;94997.06;;;-5.21;100.00
63097;BME280;49185;42.320;23.198;2023-12-20T07:32:51;94980.84;;;-5.23;100.00
63097;BME280;49185;42.320;23.198;2023-12-20T07:35:17;94984.56;;;-5.26;100.00
63097;BME280;49185;42.320;23.198;2023-12-20T07:37:43;94977.66;;;-5.17;100.00
63097;BME280;49185;42.320;23.198;2023-12-20T07:40:08;94975.06;;;-5.17;100.00
63097;BME280;49185;42.320;23.198;2023-12-20T07:42:34;94972.13;;;-5.22;100.00
63097;BME280;49185;42.320;23.198;2023-12-20T07:44:59;94971.50;;;-5.16;100.00
63097;BME280;49185;42.320;23.198;2023-12-20T07:47:25;94985.25;;;-5.06;100.00
63097;BME280;49185;42.320;23.198;2023-12-20T07:49:51;94974.00;;;-4.97;100.00
63097;BME280;49185;42.320;23.198;2023-12-20T07:52:20;94969.09;;;-5.00;100.00
63097;BME280;49185;42.320;23.198;2023-12-20T07:54:45;94967.91;;;-4.87;100.00
63097;BME280;49185;42.320;23.198;2023-12-20T07:57:11;94964.78;;;-4.73;100.00
63097;BME280;49185;42.320;23.198;2023-12-20T07:59:37;94974.00;;;-4.79;100.00
63097;BME280;49185;42.320;23.198;2023-12-20T08:02:03;94969.84;;;-4.71;100.00
63097;BME280;49185;42.320;23.198;2023-12-20T08:04:29;94967.56;;;-4.74;100.00
63097;BME280;49185;42.320;23.198;2023-12-20T08:06:54;94957.31;;;-4.58;100.00
63097;BME280;49185;42.320;23.198;2023-12-20T08:09:20;94960.69;;;-4.40;100.00
63097;BME280;49185;42.320;23.198;2023-12-20T08:11:47;94959.22;;;-4.42;100.00
63097;BME280;49185;42.320;23.198;2023-12-20T08:14:12;94966.13;;;-4.33;100.00
63097;BME280;49185;42.320;23.198;2023-12-20T08:16:38;94963.81;;;-4.36;100.00
63097;BME280;49185;42.320;23.198;2023-12-20T08:19:04;94958.91;;;-4.21;100.00
63097;BME280;49185;42.320;23.198;2023-12-20T08:21:29;94951.91;;;-4.21;100.00
63097;BME280;49185;42.320;23.198;2023-12-20T08:23:55;94949.06;;;-4.09;100.00
63097;BME280;49185;42.320;23.198;2023-12-20T08:26:20;94945.66;;;-4.10;100.00
63097;BME280;49185;42.320;23.198;2023-12-20T08:28:46;94940.75;;;-4.13;100.00
63097;BME280;49185;42.320;23.198;2023-12-20T08:31:16;94938.59;;;-3.91;100.00
63097;BME280;49185;42.320;23.198;2023-12-20T08:33:44;94942.28;;;-3.76;100.00
63097;BME280;49185;42.320;23.198;2023-12-20T08:36:10;94940.56;;;-3.59;100.00
63097;BME280;49185;42.320;23.198;2023-12-20T08:38:36;94931.31;;;-3.53;100.00
63097;BME280;49185;42.320;23.198;2023-12-20T08:41:02;94933.56;;;-3.58;100.00
63097;BME280;49185;42.320;23.198;2023-12-20T08:43:28;94930.16;;;-3.59;100.00
63097;BME280;49185;42.320;23.198;2023-12-20T08:45:54;94925.19;;;-3.44;100.00
63097;BME280;49185;42.320;23.198;2023-12-20T08:48:19;94929.22;;;-3.50;100.00
63097;BME280;49185;42.320;23.198;2023-12-20T08:50:45;94918.44;;;-3.12;100.00
63097;BME280;49185;42.320;23.198;2023-12-20T08:53:10;94916.00;;;-3.22;100.00
63097;BME280;49185;42.320;23.198;2023-12-20T08:55:36;94911.47;;;-3.03;100.00
63097;BME280;49185;42.320;23.198;2023-12-20T08:58:02;94908.09;;;-2.63;100.00
63097;BME280;49185;42.320;23.198;2023-12-20T09:00:27;94904.94;;;-2.01;100.00
63097;BME280;49185;42.320;23.198;2023-12-20T09:02:54;94896.75;;;-1.81;100.00
63097;BME280;49185;42.320;23.198;2023-12-20T09:05:20;94891.28;;;-2.03;100.00
63097;BME280;49185;42.320;23.198;2023-12-20T09:07:45;94875.50;;;-1.70;100.00
63097;BME280;49185;42.320;23.198;2023-12-20T09:10:11;94867.66;;;-1.62;100.00
63097;BME280;49185;42.320;23.198;2023-12-20T09:12:37;94877.47;;;-1.64;100.00
63097;BME280;49185;42.320;23.198;2023-12-20T09:15:02;94872.09;;;-1.70;100.00
63097;BME280;49185;42.320;23.198;2023-12-20T09:17:28;94866.25;;;-1.81;100.00
63097;BME280;49185;42.320;23.198;2023-12-20T09:19:54;94857.00;;;-1.92;100.00
63097;BME280;49185;42.320;23.198;2023-12-20T09:22:19;94854.94;;;-2.04;100.00
63097;BME280;49185;42.320;23.198;2023-12-20T09:24:45;94843.41;;;-1.70;100.00
63097;BME280;49185;42.320;23.198;2023-12-20T09:27:10;94838.81;;;-1.60;100.00
63097;BME280;49185;42.320;23.198;2023-12-20T09:29:36;94829.41;;;-1.78;100.00
63097;BME280;49185;42.320;23.198;2023-12-20T09:32:02;94828.91;;;-1.42;100.00
63097;BME280;49185;42.320;23.198;2023-12-20T09:34:28;94810.44;;;-1.09;100.00
63097;BME280;49185;42.320;23.198;2023-12-20T09:36:53;94823.16;;;-0.83;100.00
63097;BME280;49185;42.320;23.198;2023-12-20T09:39:19;94820.16;;;-0.42;100.00
63097;BME280;49185;42.320;23.198;2023-12-20T09:41:48;94800.69;;;-0.54;100.00
63097;BME280;49185;42.320;23.198;2023-12-20T09:44:16;94807.75;;;-0.10;100.00
63097;BME280;49185;42.320;23.198;2023-12-20T09:46:48;94807.44;;;-0.45;100.00
63097;BME280;49185;42.320;23.198;2023-12-20T09:49:16;94791.06;;;-0.24;100.00
63097;BME280;49185;42.320;23.198;2023-12-20T09:51:42;94791.59;;;-0.58;100.00
63097;BME280;49185;42.320;23.198;2023-12-20T09:54:09;94791.69;;;-0.36;100.00
63097;BME280;49185;42.320;23.198;2023-12-20T09:56:35;94769.78;;;-0.06;100.00
63097;BME280;49185;42.320;23.198;2023-12-20T09:59:00;94770.72;;;-0.28;100.00
63097;BME280;49185;42.320;23.198;2023-12-20T10:01:26;94765.00;;;-1.00;100.00
63097;BME280;49185;42.320;23.198;2023-12-20T10:03:54;94758.63;;;-0.44;100.00
63097;BME280;49185;42.320;23.198;2023-12-20T10:06:21;94744.34;;;-0.71;100.00
63097;BME280;49185;42.320;23.198;2023-12-20T10:08:46;94747.44;;;-0.53;100.00
63097;BME280;49185;42.320;23.198;2023-12-20T10:11:12;94741.31;;;-0.45;100.00
63097;BME280;49185;42.320;23.198;2023-12-20T10:13:41;94734.00;;;-0.65;100.00
63097;BME280;49185;42.320;23.198;2023-12-20T10:16:07;94729.44;;;-0.48;100.00
63097;BME280;49185;42.320;23.198;2023-12-20T10:18:32;94725.72;;;-0.68;100.00
63097;BME280;49185;42.320;23.198;2023-12-20T10:20:58;94711.28;;;-0.64;100.00
63097;BME280;49185;42.320;23.198;2023-12-20T10:23:23;94713.09;;;-0.65;100.00
63097;BME280;49185;42.320;23.198;2023-12-20T10:25:59;94697.59;;;-0.36;100.00
63097;BME280;49185;42.320;23.198;2023-12-20T10:28:24;94692.81;;;-0.33;100.00
63097;BME280;49185;42.320;23.198;2023-12-20T10:30:50;94700.22;;;-0.51;100.00
63097;BME280;49185;42.320;23.198;2023-12-20T10:33:24;94696.78;;;-0.97;100.00
63097;BME280;49185;42.320;23.198;2023-12-20T10:35:50;94692.75;;;-0.54;100.00
63097;BME280;49185;42.320;23.198;2023-12-20T10:38:15;94690.03;;;-0.31;100.00
63097;BME280;49185;42.320;23.198;2023-12-20T10:40:41;94686.25;;;-0.44;100.00
63097;BME280;49185;42.320;23.198;2023-12-20T10:43:08;94663.38;;;-0.42;100.00
63097;BME280;49185;42.320;23.198;2023-12-20T10:45:34;94667.22;;;-0.38;100.00
63097;BME280;49185;42.320;23.198;2023-12-20T10:48:01;94657.22;;;-0.19;100.00
63097;BME280;49185;42.320;23.198;2023-12-20T10:50:27;94652.59;;;-0.17;100.00
63097;BME280;49185;42.320;23.198;2023-12-20T10:52:54;94646.59;;;-0.32;100.00
63097;BME280;49185;42.320;23.198;2023-12-20T10:55:20;94641.66;;;-0.42;100.00
63097;BME280;49185;42.320;23.198;2023-12-20T10:57:47;94638.06;;;-0.56;100.00
63097;BME280;49185;42.320;23.198;2023-12-20T11:00:15;94648.50;;;-0.71;100.00
63097;BME280;49185;42.320;23.198;2023-12-20T11:02:42;94637.06;;;-0.55;100.00
63097;BME280;49185;42.320;23.198;2023-12-20T11:07:49;94629.88;;;-0.68;100.00
63097;BME280;49185;42.320;23.198;2023-12-20T11:12:49;94616.59;;;-0.36;100.00
63097;BME280;49185;42.320;23.198;2023-12-20T11:15:16;94606.41;;;-0.10;100.00
63097;BME280;49185;42.320;23.198;2023-12-20T11:17:44;94612.72;;;-0.41;100.00
63097;BME280;49185;42.320;23.198;2023-12-20T11:20:10;94604.50;;;-0.38;100.00
63097;BME280;49185;42.320;23.198;2023-12-20T11:22:35;94605.59;;;-0.32;100.00
63097;BME280;49185;42.320;23.198;2023-12-20T11:25:05;94594.75;;;-0.29;100.00
63097;BME280;49185;42.320;23.198;2023-12-20T11:27:35;94591.72;;;-0.11;100.00
63097;BME280;49185;42.320;23.198;2023-12-20T11:30:03;94596.19;;;-0.26;100.00
63097;BME280;49185;42.320;23.198;2023-12-20T11:32:29;94586.63;;;-0.19;100.00
63097;BME280;49185;42.320;23.198;2023-12-20T11:34:56;94579.72;;;-0.05;100.00
63097;BME280;49185;42.320;23.198;2023-12-20T11:37:29;94570.50;;;-0.01;100.00
63097;BME280;49185;42.320;23.198;2023-12-20T11:40:08;94563.41;;;0.14;100.00
63097;BME280;49185;42.320;23.198;2023-12-20T11:42:41;94562.97;;;0.11;100.00
63097;BME280;49185;42.320;23.198;2023-12-20T11:45:13;94554.69;;;0.07;100.00
63097;BME280;49185;42.320;23.198;2023-12-20T11:47:43;94551.31;;;0.13;100.00
63097;BME280;49185;42.320;23.198;2023-12-20T11:50:10;94541.59;;;0.29;100.00
63097;BME280;49185;42.320;23.198;2023-12-20T11:52:36;94537.44;;;-0.09;100.00
63097;BME280;49185;42.320;23.198;2023-12-20T11:55:01;94532.66;;;0.45;100.00
63097;BME280;49185;42.320;23.198;2023-12-20T11:57:26;94531.56;;;0.61;100.00
63097;BME280;49185;42.320;23.198;2023-12-20T11:59:52;94526.59;;;0.44;100.00
63097;BME280;49185;42.320;23.198;2023-12-20T12:02:17;94527.06;;;0.26;100.00
63097;BME280;49185;42.320;23.198;2023-12-20T12:04:43;94518.31;;;0.41;100.00
63097;BME280;49185;42.320;23.198;2023-12-20T12:07:08;94514.78;;;1.31;100.00
63097;BME280;49185;42.320;23.198;2023-12-20T12:09:34;94510.91;;;1.21;100.00
63097;BME280;49185;42.320;23.198;2023-12-20T12:12:00;94507.63;;;1.80;100.00
63097;BME280;49185;42.320;23.198;2023-12-20T12:14:25;94498.19;;;1.99;100.00
63097;BME280;49185;42.320;23.198;2023-12-20T12:16:51;94501.22;;;2.30;100.00
63097;BME280;49185;42.320;23.198;2023-12-20T12:19:23;94494.56;;;2.20;100.00
63097;BME280;49185;42.320;23.198;2023-12-20T12:22:13;94500.38;;;1.82;100.00
63097;BME280;49185;42.320;23.198;2023-12-20T12:24:43;94481.97;;;1.56;100.00
63097;BME280;49185;42.320;23.198;2023-12-20T12:27:09;94490.63;;;1.49;100.00
63097;BME280;49185;42.320;23.198;2023-12-20T12:29:35;94483.22;;;1.60;100.00
63097;BME280;49185;42.320;23.198;2023-12-20T12:32:01;94480.56;;;1.53;100.00
63097;BME280;49185;42.320;23.198;2023-12-20T12:34:29;94479.13;;;1.37;100.00
63097;BME280;49185;42.320;23.198;2023-12-20T12:36:56;94478.63;;;1.07;100.00
63097;BME280;49185;42.320;23.198;2023-12-20T12:39:23;94474.28;;;0.86;100.00